Lexington, KY

1:29 AM EDT on June 30, 2015 (GMT -0400)
Tuscany | | Change Station
CLOSE
Current Station
Personal Weather Station
Location: Lexington, KY
Elevation: 955 ft
Nearby Weather Stations

Elev 955 ft 38.03 °N, 84.42 °W | Updated 10 minutes ago

Partly Cloudy
Partly Cloudy
66.6 °F
Feels Like 66.6 °F
N
2.7
Wind Variable Wind from WSW

Today
High -- | Low -- °F
--% Chance of Precip.
Yesterday
High -- | Low -- °F
Precip. -- in
6:18 AM 9:04 PM
Waxing Gibbous, 96% visible
Pressure 29.87 in
Visibility 9.0 miles
Clouds Clear
Dew Point 63 °F
Humidity 88%
Rainfall in
Snow Depth Not available.
UV 0 out of 12
Pollen 3.20 out of 12
Air Quality Not available.
Flu Activity No Activity
METAR KLEX 300454Z 19007KT 9SM CLR 19/18 A2989 RMK AO2 SLP113 T01940183 402670161

More Conditions Fewer Conditions

Pressure 29.87 in
Visibility 9.0 miles
Clouds Clear
Dew Point 63 °F
Humidity 88%
Rainfall in
Snow Depth Not available.
UV 0 out of 12
Pollen 3.20 out of 12
Air Quality Not available.
Flu Activity No Activity
METAR KLEX 300454Z 19007KT 9SM CLR 19/18 A2989 RMK AO2 SLP113 T01940183 402670161

More Conditions Fewer Conditions

10-Day Weather Forecast

×

Almanac

Astronomy

Jun. 30, 2015 Rise Set
Actual Time
Civil Twilight
Nautical Twilight
Astronomical Twilight
Moon
Length of Visible Light
Length of Day
Tomorrow will be .
, % of the Moon is Illuminated

Today's Extremes

State Highs State Lows

Community

WunderPhotos

Upload Photos

1,833,970 photos uploaded!

WunderBlogs® & News

Nearby

Air Quality

  Air Quality AQ Index Pollutant
Not available.

Snow Depth

Station Depth Elevation

Earthquake Activity

City Distance Mag. Time & Date
Minimum magnitude displayed is 2.5.

Coastal Water Temperatures

Place Temperature

Stations

Nearby Weather Stations

Station Location Temp. Windchill Dew Point Humidity Wind Precip. Elev Updated Type